Terminal Aerodrome Forecast
Issued by NWS Omaha/Valley, NE

Home | Current Version | Previous Version | Graphics & Text | Print | Product List | Glossary On
Versions: 1 2 3 4 5 6 7 8 9 10 11 12 13 14 15 16 17 18 19 20
000
FTUS43 KOAX 200841 AAA
TAFOFK
TAF AMD
KOFK 200841Z 2009/2106 03010KT 3SM -SHRA BR OVC006
     FM201000 01010KT 6SM -SHRA OVC006
     FM201300 35009KT 4SM -SHRA OVC008
     FM201900 33009KT P6SM VCSH OVC008
     FM210000 31011KT P6SM OVC008=

USA.gov is the U.S. government's official web portal to all federal, state and local government web resources and services.